KPKB/PKB METAR and TAF weather

Enter ICAO airport designator
Station Type Date Time Source
KPKB METAR 2024/05/28 23:53 UTC NOAA

KPKB 282353Z AUTO 32003KT 10SM OVC110 21/12 A2995 RMK AO2 SLP138 T02110122 10261 20211 51013


Station Type Date Time Source
KPKB Decoded METAR 2024/05/28 23:53 UTC NOAA

MID-OHIO VALLEY RGNL AIRPORT, WV, United States (KPKB) 39-20N 81-27W
May 28, 2024 - 07:53 PM EDT / 2024.05.28 2353 UTC
Wind: from the NW (320 degrees) at 3 MPH (3 KT):0
Visibility: 10 mile(s):0
Sky conditions: overcast
Temperature: 70.0 F (21.1 C)
Dew Point: 54.0 F (12.2 C)
Relative Humidity: 56%
Pressure (altimeter): 29.95 in. Hg (1014 hPa)
Pressure tendency: 0.04 inches (1.3 hPa) higher than three hours ago
ob: KPKB 282353Z AUTO 32003KT 10SM OVC110 21/12 A2995 RMK AO2 SLP138 T02110122 10261 20211 51013
cycle: 0

Station Type Date Time Source
KPKB TAF 2024/05/28 18:22 UTC NOAA